Terminal Aerodrome Forecast
Issued by NWS Wichita, KS

Home | Current Version | Previous Version | Text Only | Print | Product List | Glossary On
Versions: 1 2 3 4 5 6 7 8 9 10 11 12 13 14
863
FTUS43 KICT 072321
TAFICT
TAF
KICT 072321Z 0800/0824 30017G24KT P6SM SCT110
     FM081600 33025G34KT P6SM FEW250
     FM081800 33031G38KT P6SM SCT250=

USA.gov is the U.S. government's official web portal to all federal, state and local government web resources and services.